Airport View

Enter AWOS ICAO identifier for current METAR.

ex. KFNL

K5H4 171155Z AUTO 31012G17KT 9SM -UP OVC008 M00/M01 A2998 RMK AO2

17 Nov 2019 11:56

Frequency: 118.825

Phone: 701-324-2058

Other Area AWOS: KRUG - K46D - KDVL - K9D7

TAF KDVL 170535Z 1706/1806 31016G22KT P6SM OVC025 TEMPO 1706/1708 -SN FM171000 31012KT P6SM OVC015 FM171800 28007KT P6SM OVC025 FM172100 VRB05KT P6SM BKN070